<?xml version="1.0" encoding="UTF-8" standalone="no" ?>
<gpx xmlns="http://www.topografix.com/GPX/1/1" xmlns:xsi="http://www.w3.org/2001/XMLSchema-instance" xsi:schemaLocation="http://www.topografix.com/GPX/1/1 http://www.topografix.com/GPX/1/1/gpx.xsd" version="1.1" creator="VisuGPX - https://www.visugpx.com">
  <metadata>
    <name>Du port au Vieux Nice modifiée</name>
  </metadata>
  <trk>
    <name><![CDATA[Du port au Vieux Nice ]]></name>
    <extensions>
      <line xmlns="http://www.topografix.com/GPX/gpx_style/0/2">
        <color>0000FF</color>
        <width>4</width>
      </line>
    </extensions>
    <trkseg>
      <trkpt lat="43.69073" lon="7.2952">
        <ele>53.3</ele>
        <time>2022-09-28T10:00:00.000Z</time>
      </trkpt>
      <trkpt lat="43.6911" lon="7.29511">
        <ele>56</ele>
        <time>2022-09-28T10:02:39.092Z</time>
      </trkpt>
      <trkpt lat="43.69125" lon="7.29504">
        <ele>54.8</ele>
        <time>2022-09-28T10:02:44.234Z</time>
      </trkpt>
      <trkpt lat="43.69137" lon="7.29495">
        <ele>53.6</ele>
        <time>2022-09-28T10:02:48.668Z</time>
      </trkpt>
      <trkpt lat="43.69152" lon="7.29484">
        <ele>52.7</ele>
        <time>2022-09-28T10:02:54.304Z</time>
      </trkpt>
      <trkpt lat="43.69166" lon="7.29468">
        <ele>52.2</ele>
        <time>2022-09-28T10:03:01.988Z</time>
      </trkpt>
      <trkpt lat="43.69179" lon="7.29441">
        <ele>50.1</ele>
        <time>2022-09-28T10:03:09.607Z</time>
      </trkpt>
      <trkpt lat="43.69188" lon="7.29418">
        <ele>49.4</ele>
        <time>2022-09-28T10:03:16.866Z</time>
      </trkpt>
      <trkpt lat="43.69202" lon="7.29368">
        <ele>47.8</ele>
        <time>2022-09-28T10:03:31.153Z</time>
      </trkpt>
      <trkpt lat="43.69215" lon="7.2934">
        <ele>47.4</ele>
        <time>2022-09-28T10:03:42.688Z</time>
      </trkpt>
      <trkpt lat="43.69236" lon="7.2932">
        <ele>46.5</ele>
        <time>2022-09-28T10:03:52.643Z</time>
      </trkpt>
      <trkpt lat="43.69243" lon="7.29319">
        <ele>46.6</ele>
        <time>2022-09-28T10:04:09.429Z</time>
      </trkpt>
      <trkpt lat="43.69267" lon="7.29311">
        <ele>44.5</ele>
        <time>2022-09-28T10:04:17.448Z</time>
      </trkpt>
      <trkpt lat="43.69275" lon="7.29308">
        <ele>44.2</ele>
        <time>2022-09-28T10:04:20.656Z</time>
      </trkpt>
      <trkpt lat="43.69314" lon="7.29301">
        <ele>43</ele>
        <time>2022-09-28T10:04:36.776Z</time>
      </trkpt>
      <trkpt lat="43.69332" lon="7.29304">
        <ele>41.6</ele>
        <time>2022-09-28T10:04:42.666Z</time>
      </trkpt>
      <trkpt lat="43.69349" lon="7.2931">
        <ele>39.1</ele>
        <time>2022-09-28T10:04:48.365Z</time>
      </trkpt>
      <trkpt lat="43.69393" lon="7.29332">
        <ele>39.6</ele>
        <time>2022-09-28T10:06:35.974Z</time>
      </trkpt>
      <trkpt lat="43.69425" lon="7.29346">
        <ele>38.6</ele>
        <time>2022-09-28T10:06:49.835Z</time>
      </trkpt>
      <trkpt lat="43.69444" lon="7.29347">
        <ele>39.4</ele>
        <time>2022-09-28T10:07:54.023Z</time>
      </trkpt>
      <trkpt lat="43.69459" lon="7.29343">
        <ele>39.3</ele>
        <time>2022-09-28T10:08:22.830Z</time>
      </trkpt>
      <trkpt lat="43.69523" lon="7.29315">
        <ele>38.4</ele>
        <time>2022-09-28T10:08:56.328Z</time>
      </trkpt>
      <trkpt lat="43.69565" lon="7.29278">
        <ele>37.1</ele>
        <time>2022-09-28T10:09:17.724Z</time>
      </trkpt>
      <trkpt lat="43.69583" lon="7.29259">
        <ele>36.9</ele>
        <time>2022-09-28T10:09:29.722Z</time>
      </trkpt>
      <trkpt lat="43.69597" lon="7.29235">
        <ele>34.6</ele>
        <time>2022-09-28T10:09:36.964Z</time>
      </trkpt>
      <trkpt lat="43.6961" lon="7.29219">
        <ele>33.8</ele>
        <time>2022-09-28T10:09:43.106Z</time>
      </trkpt>
      <trkpt lat="43.69621" lon="7.29212">
        <ele>34</ele>
        <time>2022-09-28T10:10:12.708Z</time>
      </trkpt>
      <trkpt lat="43.69631" lon="7.29203">
        <ele>34</ele>
        <time>2022-09-28T10:10:37.462Z</time>
      </trkpt>
      <trkpt lat="43.69648" lon="7.29174">
        <ele>34.8</ele>
        <time>2022-09-28T10:11:54.338Z</time>
      </trkpt>
      <trkpt lat="43.69661" lon="7.29134">
        <ele>31.3</ele>
        <time>2022-09-28T10:12:04.637Z</time>
      </trkpt>
      <trkpt lat="43.69661" lon="7.29111">
        <ele>30</ele>
        <time>2022-09-28T10:12:10.039Z</time>
      </trkpt>
      <trkpt lat="43.69661" lon="7.2909">
        <ele>30</ele>
        <time>2022-09-28T10:12:41.542Z</time>
      </trkpt>
      <trkpt lat="43.69661" lon="7.29042">
        <ele>27.9</ele>
        <time>2022-09-28T10:12:52.375Z</time>
      </trkpt>
      <trkpt lat="43.69662" lon="7.29029">
        <ele>32.6</ele>
        <time>2022-09-28T10:14:08.019Z</time>
      </trkpt>
      <trkpt lat="43.69663" lon="7.28976">
        <ele>25.6</ele>
        <time>2022-09-28T10:14:20.471Z</time>
      </trkpt>
      <trkpt lat="43.69664" lon="7.28961">
        <ele>25.3</ele>
        <time>2022-09-28T10:14:25.078Z</time>
      </trkpt>
      <trkpt lat="43.6967" lon="7.2893">
        <ele>24.8</ele>
        <time>2022-09-28T10:14:35.571Z</time>
      </trkpt>
      <trkpt lat="43.69673" lon="7.28919">
        <ele>24.4</ele>
        <time>2022-09-28T10:14:38.542Z</time>
      </trkpt>
      <trkpt lat="43.69678" lon="7.28908">
        <ele>23.9</ele>
        <time>2022-09-28T10:14:41.655Z</time>
      </trkpt>
      <trkpt lat="43.6968" lon="7.28904">
        <ele>23.6</ele>
        <time>2022-09-28T10:14:42.797Z</time>
      </trkpt>
      <trkpt lat="43.69695" lon="7.28889">
        <ele>22</ele>
        <time>2022-09-28T10:14:48.810Z</time>
      </trkpt>
      <trkpt lat="43.69715" lon="7.28882">
        <ele>19.7</ele>
        <time>2022-09-28T10:14:55.512Z</time>
      </trkpt>
      <trkpt lat="43.69761" lon="7.28878">
        <ele>15</ele>
        <time>2022-09-28T10:15:10.484Z</time>
      </trkpt>
      <trkpt lat="43.69775" lon="7.28875">
        <ele>13.9</ele>
        <time>2022-09-28T10:15:15.086Z</time>
      </trkpt>
      <trkpt lat="43.69791" lon="7.28866">
        <ele>13.5</ele>
        <time>2022-09-28T10:15:22.755Z</time>
      </trkpt>
      <trkpt lat="43.69799" lon="7.28854">
        <ele>13.5</ele>
        <time>2022-09-28T10:15:47.241Z</time>
      </trkpt>
      <trkpt lat="43.69803" lon="7.28842">
        <ele>13.3</ele>
        <time>2022-09-28T10:15:51.592Z</time>
      </trkpt>
      <trkpt lat="43.69809" lon="7.28813">
        <ele>10.6</ele>
        <time>2022-09-28T10:15:58.676Z</time>
      </trkpt>
      <trkpt lat="43.6981" lon="7.28799">
        <ele>9.4</ele>
        <time>2022-09-28T10:16:01.980Z</time>
      </trkpt>
      <trkpt lat="43.69813" lon="7.28781">
        <ele>8.2</ele>
        <time>2022-09-28T10:16:06.318Z</time>
      </trkpt>
      <trkpt lat="43.69816" lon="7.28742">
        <ele>8.6</ele>
        <time>2022-09-28T10:17:13.882Z</time>
      </trkpt>
      <trkpt lat="43.69821" lon="7.28702">
        <ele>8.3</ele>
        <time>2022-09-28T10:17:29.146Z</time>
      </trkpt>
      <trkpt lat="43.69824" lon="7.28664">
        <ele>7.3</ele>
        <time>2022-09-28T10:17:39.841Z</time>
      </trkpt>
      <trkpt lat="43.69824" lon="7.28657">
        <ele>7</ele>
        <time>2022-09-28T10:17:41.437Z</time>
      </trkpt>
      <trkpt lat="43.6982" lon="7.28651">
        <ele>6.5</ele>
        <time>2022-09-28T10:17:43.353Z</time>
      </trkpt>
      <trkpt lat="43.69817" lon="7.28648">
        <ele>13.6</ele>
        <time>2022-09-28T10:18:12.980Z</time>
      </trkpt>
      <trkpt lat="43.69806" lon="7.28647">
        <ele>5.3</ele>
        <time>2022-09-28T10:18:16.561Z</time>
      </trkpt>
      <trkpt lat="43.69778" lon="7.28642">
        <ele>12.6</ele>
        <time>2022-09-28T10:22:02.502Z</time>
      </trkpt>
      <trkpt lat="43.69752" lon="7.28639">
        <ele>11.9</ele>
        <time>2022-09-28T10:22:13.624Z</time>
      </trkpt>
      <trkpt lat="43.6968" lon="7.28621">
        <ele>9.4</ele>
        <time>2022-09-28T10:22:42.514Z</time>
      </trkpt>
      <trkpt lat="43.69679" lon="7.28611">
        <ele>9.1</ele>
        <time>2022-09-28T10:22:45.208Z</time>
      </trkpt>
      <trkpt lat="43.69685" lon="7.28592">
        <ele>9</ele>
        <time>2022-09-28T10:23:13.426Z</time>
      </trkpt>
      <trkpt lat="43.69681" lon="7.28597">
        <ele>9</ele>
        <time>2022-09-28T10:23:24.612Z</time>
      </trkpt>
      <trkpt lat="43.69671" lon="7.28593">
        <ele>9.1</ele>
        <time>2022-09-28T10:23:48.295Z</time>
      </trkpt>
      <trkpt lat="43.69664" lon="7.28595">
        <ele>9.1</ele>
        <time>2022-09-28T10:24:03.125Z</time>
      </trkpt>
      <trkpt lat="43.69663" lon="7.28592">
        <ele>9.1</ele>
        <time>2022-09-28T10:24:08.081Z</time>
      </trkpt>
      <trkpt lat="43.69654" lon="7.28591">
        <ele>9.1</ele>
        <time>2022-09-28T10:24:26.814Z</time>
      </trkpt>
      <trkpt lat="43.69658" lon="7.28591">
        <ele>9.1</ele>
        <time>2022-09-28T10:24:35.114Z</time>
      </trkpt>
      <trkpt lat="43.69655" lon="7.28589">
        <ele>9.1</ele>
        <time>2022-09-28T10:24:42.023Z</time>
      </trkpt>
      <trkpt lat="43.69645" lon="7.28594">
        <ele>9.1</ele>
        <time>2022-09-28T10:25:04.086Z</time>
      </trkpt>
      <trkpt lat="43.69643" lon="7.28589">
        <ele>9.1</ele>
        <time>2022-09-28T10:25:12.658Z</time>
      </trkpt>
      <trkpt lat="43.69641" lon="7.28591">
        <ele>9.1</ele>
        <time>2022-09-28T10:25:17.779Z</time>
      </trkpt>
      <trkpt lat="43.69639" lon="7.28588">
        <ele>9.1</ele>
        <time>2022-09-28T10:25:23.900Z</time>
      </trkpt>
      <trkpt lat="43.69636" lon="7.2859">
        <ele>9.1</ele>
        <time>2022-09-28T10:25:30.810Z</time>
      </trkpt>
      <trkpt lat="43.69638" lon="7.2859">
        <ele>9.1</ele>
        <time>2022-09-28T10:25:34.960Z</time>
      </trkpt>
      <trkpt lat="43.6963" lon="7.28594">
        <ele>9.1</ele>
        <time>2022-09-28T10:25:52.609Z</time>
      </trkpt>
      <trkpt lat="43.69607" lon="7.28585">
        <ele>9.1</ele>
        <time>2022-09-28T10:26:42.204Z</time>
      </trkpt>
      <trkpt lat="43.69548" lon="7.28571">
        <ele>9</ele>
        <time>2022-09-28T10:28:43.307Z</time>
      </trkpt>
      <trkpt lat="43.69537" lon="7.28563">
        <ele>9</ele>
        <time>2022-09-28T10:29:09.093Z</time>
      </trkpt>
      <trkpt lat="43.69533" lon="7.28564">
        <ele>9</ele>
        <time>2022-09-28T10:29:17.527Z</time>
      </trkpt>
      <trkpt lat="43.69527" lon="7.28587">
        <ele>9</ele>
        <time>2022-09-28T10:29:54.208Z</time>
      </trkpt>
      <trkpt lat="43.69512" lon="7.2858">
        <ele>8.9</ele>
        <time>2022-09-28T10:30:24.156Z</time>
      </trkpt>
      <trkpt lat="43.69501" lon="7.28583">
        <ele>8.8</ele>
        <time>2022-09-28T10:30:30.089Z</time>
      </trkpt>
      <trkpt lat="43.69501" lon="7.286">
        <ele>8.8</ele>
        <time>2022-09-28T10:30:55.592Z</time>
      </trkpt>
      <trkpt lat="43.69494" lon="7.28608">
        <ele>8.7</ele>
        <time>2022-09-28T10:31:00.266Z</time>
      </trkpt>
      <trkpt lat="43.69493" lon="7.28615">
        <ele>8.7</ele>
        <time>2022-09-28T10:31:10.970Z</time>
      </trkpt>
      <trkpt lat="43.69485" lon="7.28617">
        <ele>8.6</ele>
        <time>2022-09-28T10:31:15.085Z</time>
      </trkpt>
      <trkpt lat="43.69477" lon="7.28613">
        <ele>8.5</ele>
        <time>2022-09-28T10:31:19.421Z</time>
      </trkpt>
      <trkpt lat="43.69483" lon="7.28615">
        <ele>8.4</ele>
        <time>2022-09-28T10:31:22.395Z</time>
      </trkpt>
      <trkpt lat="43.69485" lon="7.28608">
        <ele>8.4</ele>
        <time>2022-09-28T10:31:33.687Z</time>
      </trkpt>
      <trkpt lat="43.69468" lon="7.28605">
        <ele>8.3</ele>
        <time>2022-09-28T10:32:06.327Z</time>
      </trkpt>
      <trkpt lat="43.69465" lon="7.28607">
        <ele>8.3</ele>
        <time>2022-09-28T10:32:13.236Z</time>
      </trkpt>
      <trkpt lat="43.6947" lon="7.28612">
        <ele>8.3</ele>
        <time>2022-09-28T10:32:26.038Z</time>
      </trkpt>
      <trkpt lat="43.69471" lon="7.28607">
        <ele>8.2</ele>
        <time>2022-09-28T10:32:27.640Z</time>
      </trkpt>
      <trkpt lat="43.6947" lon="7.2861">
        <ele>8.2</ele>
        <time>2022-09-28T10:32:32.596Z</time>
      </trkpt>
      <trkpt lat="43.69439" lon="7.28597">
        <ele>8.1</ele>
        <time>2022-09-28T10:33:36.772Z</time>
      </trkpt>
      <trkpt lat="43.69436" lon="7.28591">
        <ele>8.1</ele>
        <time>2022-09-28T10:33:47.715Z</time>
      </trkpt>
      <trkpt lat="43.69432" lon="7.28597">
        <ele>8.1</ele>
        <time>2022-09-28T10:33:59.959Z</time>
      </trkpt>
      <trkpt lat="43.69429" lon="7.28594">
        <ele>8.1</ele>
        <time>2022-09-28T10:34:07.640Z</time>
      </trkpt>
      <trkpt lat="43.69436" lon="7.28594">
        <ele>8</ele>
        <time>2022-09-28T10:34:11.094Z</time>
      </trkpt>
      <trkpt lat="43.69446" lon="7.28604">
        <ele>8</ele>
        <time>2022-09-28T10:34:36.698Z</time>
      </trkpt>
      <trkpt lat="43.69451" lon="7.28605">
        <ele>8</ele>
        <time>2022-09-28T10:34:47.180Z</time>
      </trkpt>
      <trkpt lat="43.69448" lon="7.286">
        <ele>8</ele>
        <time>2022-09-28T10:34:56.927Z</time>
      </trkpt>
      <trkpt lat="43.69463" lon="7.28604">
        <ele>7.9</ele>
        <time>2022-09-28T10:35:25.734Z</time>
      </trkpt>
      <trkpt lat="43.69465" lon="7.28586">
        <ele>7.9</ele>
        <time>2022-09-28T10:35:53.054Z</time>
      </trkpt>
      <trkpt lat="43.69443" lon="7.28584">
        <ele>7.8</ele>
        <time>2022-09-28T10:36:35.826Z</time>
      </trkpt>
      <trkpt lat="43.69436" lon="7.28581">
        <ele>7.8</ele>
        <time>2022-09-28T10:36:51.031Z</time>
      </trkpt>
      <trkpt lat="43.69413" lon="7.28586">
        <ele>7.7</ele>
        <time>2022-09-28T10:37:36.355Z</time>
      </trkpt>
      <trkpt lat="43.69407" lon="7.28577">
        <ele>7.7</ele>
        <time>2022-09-28T10:37:54.720Z</time>
      </trkpt>
      <trkpt lat="43.69392" lon="7.28571">
        <ele>7.6</ele>
        <time>2022-09-28T10:38:24.223Z</time>
      </trkpt>
      <trkpt lat="43.69393" lon="7.28581">
        <ele>7.6</ele>
        <time>2022-09-28T10:38:39.368Z</time>
      </trkpt>
      <trkpt lat="43.69389" lon="7.28563">
        <ele>7.6</ele>
        <time>2022-09-28T10:39:07.618Z</time>
      </trkpt>
      <trkpt lat="43.69386" lon="7.28561">
        <ele>7.6</ele>
        <time>2022-09-28T10:39:14.528Z</time>
      </trkpt>
      <trkpt lat="43.69373" lon="7.2857">
        <ele>7.5</ele>
        <time>2022-09-28T10:39:41.815Z</time>
      </trkpt>
      <trkpt lat="43.69374" lon="7.28566">
        <ele>7.5</ele>
        <time>2022-09-28T10:39:48.164Z</time>
      </trkpt>
      <trkpt lat="43.69372" lon="7.28569">
        <ele>7.5</ele>
        <time>2022-09-28T10:39:54.286Z</time>
      </trkpt>
      <trkpt lat="43.69376" lon="7.28569">
        <ele>7.4</ele>
        <time>2022-09-28T10:39:56.026Z</time>
      </trkpt>
      <trkpt lat="43.69379" lon="7.28573">
        <ele>7.4</ele>
        <time>2022-09-28T10:40:04.672Z</time>
      </trkpt>
      <trkpt lat="43.6939" lon="7.28568">
        <ele>7.4</ele>
        <time>2022-09-28T10:40:28.696Z</time>
      </trkpt>
      <trkpt lat="43.69394" lon="7.28573">
        <ele>7.4</ele>
        <time>2022-09-28T10:40:39.883Z</time>
      </trkpt>
      <trkpt lat="43.69406" lon="7.28574">
        <ele>7.3</ele>
        <time>2022-09-28T10:40:46.297Z</time>
      </trkpt>
      <trkpt lat="43.69412" lon="7.28585">
        <ele>7.3</ele>
        <time>2022-09-28T10:41:06.968Z</time>
      </trkpt>
      <trkpt lat="43.6941" lon="7.28622">
        <ele>7.1</ele>
        <time>2022-09-28T10:41:21.451Z</time>
      </trkpt>
      <trkpt lat="43.69382" lon="7.28736">
        <ele>6.8</ele>
        <time>2022-09-28T10:44:13.012Z</time>
      </trkpt>
      <trkpt lat="43.69383" lon="7.28729">
        <ele>6.8</ele>
        <time>2022-09-28T10:44:23.716Z</time>
      </trkpt>
      <trkpt lat="43.6938" lon="7.28753">
        <ele>6.7</ele>
        <time>2022-09-28T10:44:57.330Z</time>
      </trkpt>
      <trkpt lat="43.69362" lon="7.28745">
        <ele>6.6</ele>
        <time>2022-09-28T10:45:33.617Z</time>
      </trkpt>
      <trkpt lat="43.69364" lon="7.28747">
        <ele>6.6</ele>
        <time>2022-09-28T10:45:38.738Z</time>
      </trkpt>
      <trkpt lat="43.69362" lon="7.28747">
        <ele>6.6</ele>
        <time>2022-09-28T10:45:42.888Z</time>
      </trkpt>
      <trkpt lat="43.6938" lon="7.28756">
        <ele>6.6</ele>
        <time>2022-09-28T10:46:22.600Z</time>
      </trkpt>
      <trkpt lat="43.69413" lon="7.28623">
        <ele>7.2</ele>
        <time>2022-09-28T10:50:05.600Z</time>
      </trkpt>
      <trkpt lat="43.69432" lon="7.28589">
        <ele>7.5</ele>
        <time>2022-09-28T10:51:16.320Z</time>
      </trkpt>
      <trkpt lat="43.6944" lon="7.28567">
        <ele>7.7</ele>
        <time>2022-09-28T10:51:57.499Z</time>
      </trkpt>
      <trkpt lat="43.69444" lon="7.28566">
        <ele>7.8</ele>
        <time>2022-09-28T10:52:08.387Z</time>
      </trkpt>
      <trkpt lat="43.69438" lon="7.28571">
        <ele>7.9</ele>
        <time>2022-09-28T10:52:25.107Z</time>
      </trkpt>
      <trkpt lat="43.69438" lon="7.28578">
        <ele>7.9</ele>
        <time>2022-09-28T10:52:35.608Z</time>
      </trkpt>
      <trkpt lat="43.6947" lon="7.28587">
        <ele>8.4</ele>
        <time>2022-09-28T10:53:54.414Z</time>
      </trkpt>
      <trkpt lat="43.69476" lon="7.28577">
        <ele>8.6</ele>
        <time>2022-09-28T10:54:18.630Z</time>
      </trkpt>
      <trkpt lat="43.69473" lon="7.28566">
        <ele>8.6</ele>
        <time>2022-09-28T10:54:36.267Z</time>
      </trkpt>
      <trkpt lat="43.69476" lon="7.28565">
        <ele>8.7</ele>
        <time>2022-09-28T10:54:45.372Z</time>
      </trkpt>
      <trkpt lat="43.69491" lon="7.28582">
        <ele>8.8</ele>
        <time>2022-09-28T10:55:27.604Z</time>
      </trkpt>
      <trkpt lat="43.69502" lon="7.28575">
        <ele>8.9</ele>
        <time>2022-09-28T10:55:54.783Z</time>
      </trkpt>
      <trkpt lat="43.69527" lon="7.28591">
        <ele>9</ele>
        <time>2022-09-28T10:56:53.904Z</time>
      </trkpt>
      <trkpt lat="43.69546" lon="7.28593">
        <ele>9</ele>
        <time>2022-09-28T10:57:33.439Z</time>
      </trkpt>
      <trkpt lat="43.69546" lon="7.28595">
        <ele>9</ele>
        <time>2022-09-28T10:57:36.440Z</time>
      </trkpt>
      <trkpt lat="43.69565" lon="7.28594">
        <ele>9</ele>
        <time>2022-09-28T10:58:15.890Z</time>
      </trkpt>
      <trkpt lat="43.69598" lon="7.28603">
        <ele>9.1</ele>
        <time>2022-09-28T10:59:27.631Z</time>
      </trkpt>
      <trkpt lat="43.69607" lon="7.28599">
        <ele>9.1</ele>
        <time>2022-09-28T10:59:47.245Z</time>
      </trkpt>
      <trkpt lat="43.69629" lon="7.28602">
        <ele>9.1</ele>
        <time>2022-09-28T11:00:33.113Z</time>
      </trkpt>
      <trkpt lat="43.69644" lon="7.28609">
        <ele>9.1</ele>
        <time>2022-09-28T11:01:05.959Z</time>
      </trkpt>
      <trkpt lat="43.69655" lon="7.28624">
        <ele>9.1</ele>
        <time>2022-09-28T11:01:38.009Z</time>
      </trkpt>
      <trkpt lat="43.69668" lon="7.28626">
        <ele>9.2</ele>
        <time>2022-09-28T11:02:07.192Z</time>
      </trkpt>
      <trkpt lat="43.69679" lon="7.28634">
        <ele>9.4</ele>
        <time>2022-09-28T11:02:37.436Z</time>
      </trkpt>
      <trkpt lat="43.69702" lon="7.28634">
        <ele>10.1</ele>
        <time>2022-09-28T11:03:43.603Z</time>
      </trkpt>
      <trkpt lat="43.69712" lon="7.28641">
        <ele>10.5</ele>
        <time>2022-09-28T11:04:18.151Z</time>
      </trkpt>
      <trkpt lat="43.69722" lon="7.28643">
        <ele>10.9</ele>
        <time>2022-09-28T11:04:51.042Z</time>
      </trkpt>
      <trkpt lat="43.69733" lon="7.2864">
        <ele>11.4</ele>
        <time>2022-09-28T11:05:30.327Z</time>
      </trkpt>
      <trkpt lat="43.69759" lon="7.28653">
        <ele>12</ele>
        <time>2022-09-28T11:06:41.921Z</time>
      </trkpt>
      <trkpt lat="43.69773" lon="7.28651">
        <ele>12.3</ele>
        <time>2022-09-28T11:07:18.208Z</time>
      </trkpt>
      <trkpt lat="43.69783" lon="7.28655">
        <ele>12.6</ele>
        <time>2022-09-28T11:07:47.553Z</time>
      </trkpt>
      <trkpt lat="43.69785" lon="7.2866">
        <ele>12.7</ele>
        <time>2022-09-28T11:07:58.567Z</time>
      </trkpt>
      <trkpt lat="43.69782" lon="7.28645">
        <ele>13</ele>
        <time>2022-09-28T11:08:29.457Z</time>
      </trkpt>
      <trkpt lat="43.69797" lon="7.2865">
        <ele>5.4</ele>
        <time>2022-09-28T11:08:34.469Z</time>
      </trkpt>
      <trkpt lat="43.69807" lon="7.28652">
        <ele>5.6</ele>
        <time>2022-09-28T11:09:00.076Z</time>
      </trkpt>
      <trkpt lat="43.69825" lon="7.28653">
        <ele>13.7</ele>
        <time>2022-09-28T11:11:24.244Z</time>
      </trkpt>
      <trkpt lat="43.69825" lon="7.28641">
        <ele>13.8</ele>
        <time>2022-09-28T11:11:44.370Z</time>
      </trkpt>
      <trkpt lat="43.69833" lon="7.28623">
        <ele>13.7</ele>
        <time>2022-09-28T11:12:13.176Z</time>
      </trkpt>
      <trkpt lat="43.69833" lon="7.286">
        <ele>13.5</ele>
        <time>2022-09-28T11:12:21.623Z</time>
      </trkpt>
      <trkpt lat="43.69836" lon="7.28572">
        <ele>5.7</ele>
        <time>2022-09-28T11:12:28.270Z</time>
      </trkpt>
      <trkpt lat="43.69838" lon="7.28547">
        <ele>5.1</ele>
        <time>2022-09-28T11:12:35.536Z</time>
      </trkpt>
      <trkpt lat="43.69839" lon="7.28538">
        <ele>4.9</ele>
        <time>2022-09-28T11:12:38.239Z</time>
      </trkpt>
      <trkpt lat="43.69841" lon="7.28516">
        <ele>4.5</ele>
        <time>2022-09-28T11:12:45.215Z</time>
      </trkpt>
      <trkpt lat="43.69855" lon="7.28517">
        <ele>13.5</ele>
        <time>2022-09-28T11:14:37.405Z</time>
      </trkpt>
      <trkpt lat="43.69865" lon="7.28518">
        <ele>7</ele>
        <time>2022-09-28T11:14:40.662Z</time>
      </trkpt>
      <trkpt lat="43.69879" lon="7.28519">
        <ele>7</ele>
        <time>2022-09-28T11:15:09.748Z</time>
      </trkpt>
      <trkpt lat="43.69868" lon="7.28517">
        <ele>13.6</ele>
        <time>2022-09-28T11:16:38.538Z</time>
      </trkpt>
      <trkpt lat="43.6986" lon="7.28515">
        <ele>6.9</ele>
        <time>2022-09-28T11:16:41.178Z</time>
      </trkpt>
      <trkpt lat="43.69843" lon="7.28511">
        <ele>4.6</ele>
        <time>2022-09-28T11:16:46.780Z</time>
      </trkpt>
      <trkpt lat="43.69844" lon="7.285">
        <ele>4.5</ele>
        <time>2022-09-28T11:16:50.828Z</time>
      </trkpt>
      <trkpt lat="43.69847" lon="7.28462">
        <ele>4.5</ele>
        <time>2022-09-28T11:17:48.170Z</time>
      </trkpt>
      <trkpt lat="43.69849" lon="7.28452">
        <ele>4.7</ele>
        <time>2022-09-28T11:18:08.763Z</time>
      </trkpt>
      <trkpt lat="43.69841" lon="7.28395">
        <ele>12.9</ele>
        <time>2022-09-28T11:23:44.721Z</time>
      </trkpt>
      <trkpt lat="43.6983" lon="7.28381">
        <ele>12.6</ele>
        <time>2022-09-28T11:23:51.599Z</time>
      </trkpt>
      <trkpt lat="43.69811" lon="7.28378">
        <ele>12.1</ele>
        <time>2022-09-28T11:23:59.812Z</time>
      </trkpt>
      <trkpt lat="43.69775" lon="7.28378">
        <ele>11.3</ele>
        <time>2022-09-28T11:24:15.967Z</time>
      </trkpt>
      <trkpt lat="43.69763" lon="7.28375">
        <ele>11.1</ele>
        <time>2022-09-28T11:24:21.830Z</time>
      </trkpt>
      <trkpt lat="43.6974" lon="7.28375">
        <ele>10.8</ele>
        <time>2022-09-28T11:24:33.361Z</time>
      </trkpt>
      <trkpt lat="43.69703" lon="7.28365">
        <ele>10.5</ele>
        <time>2022-09-28T11:24:53.575Z</time>
      </trkpt>
      <trkpt lat="43.69683" lon="7.28357">
        <ele>10.5</ele>
        <time>2022-09-28T11:25:36.772Z</time>
      </trkpt>
      <trkpt lat="43.69674" lon="7.28357">
        <ele>4.2</ele>
        <time>2022-09-28T11:25:39.695Z</time>
      </trkpt>
      <trkpt lat="43.69674" lon="7.28346">
        <ele>4.7</ele>
        <time>2022-09-28T11:26:11.206Z</time>
      </trkpt>
      <trkpt lat="43.69658" lon="7.28344">
        <ele>4.6</ele>
        <time>2022-09-28T11:26:41.636Z</time>
      </trkpt>
      <trkpt lat="43.69635" lon="7.28343">
        <ele>10.5</ele>
        <time>2022-09-28T11:29:45.794Z</time>
      </trkpt>
      <trkpt lat="43.69621" lon="7.28348">
        <ele>10.6</ele>
        <time>2022-09-28T11:30:17.823Z</time>
      </trkpt>
      <trkpt lat="43.69595" lon="7.28339">
        <ele>10.5</ele>
        <time>2022-09-28T11:31:10.425Z</time>
      </trkpt>
      <trkpt lat="43.69575" lon="7.2834">
        <ele>10.5</ele>
        <time>2022-09-28T11:31:51.949Z</time>
      </trkpt>
      <trkpt lat="43.69565" lon="7.28333">
        <ele>10.5</ele>
        <time>2022-09-28T11:32:15.203Z</time>
      </trkpt>
      <trkpt lat="43.69555" lon="7.28332">
        <ele>10.4</ele>
        <time>2022-09-28T11:32:20.435Z</time>
      </trkpt>
      <trkpt lat="43.69546" lon="7.28327">
        <ele>10.4</ele>
        <time>2022-09-28T11:32:40.559Z</time>
      </trkpt>
      <trkpt lat="43.69519" lon="7.28326">
        <ele>10.4</ele>
        <time>2022-09-28T11:33:36.599Z</time>
      </trkpt>
      <trkpt lat="43.69504" lon="7.28316">
        <ele>10.5</ele>
        <time>2022-09-28T11:34:13.160Z</time>
      </trkpt>
      <trkpt lat="43.69458" lon="7.28306">
        <ele>11</ele>
        <time>2022-09-28T11:36:00.313Z</time>
      </trkpt>
      <trkpt lat="43.69448" lon="7.28291">
        <ele>11.4</ele>
        <time>2022-09-28T11:36:41.035Z</time>
      </trkpt>
      <trkpt lat="43.6944" lon="7.28287">
        <ele>11.6</ele>
        <time>2022-09-28T11:37:03.529Z</time>
      </trkpt>
      <trkpt lat="43.69412" lon="7.28281">
        <ele>12.3</ele>
        <time>2022-09-28T11:38:19.512Z</time>
      </trkpt>
      <trkpt lat="43.69421" lon="7.28288">
        <ele>12.6</ele>
        <time>2022-09-28T11:38:48.704Z</time>
      </trkpt>
      <trkpt lat="43.69421" lon="7.28298">
        <ele>13.1</ele>
        <time>2022-09-28T11:39:18.700Z</time>
      </trkpt>
      <trkpt lat="43.69417" lon="7.28304">
        <ele>13.3</ele>
        <time>2022-09-28T11:39:36.456Z</time>
      </trkpt>
      <trkpt lat="43.69409" lon="7.283">
        <ele>13.6</ele>
        <time>2022-09-28T11:40:02.528Z</time>
      </trkpt>
      <trkpt lat="43.6939" lon="7.28264">
        <ele>14.8</ele>
        <time>2022-09-28T11:41:44.003Z</time>
      </trkpt>
      <trkpt lat="43.69378" lon="7.2826">
        <ele>15.2</ele>
        <time>2022-09-28T11:42:20.424Z</time>
      </trkpt>
      <trkpt lat="43.69376" lon="7.28253">
        <ele>15.4</ele>
        <time>2022-09-28T11:42:37.446Z</time>
      </trkpt>
      <trkpt lat="43.69362" lon="7.28246">
        <ele>15.8</ele>
        <time>2022-09-28T11:43:18.417Z</time>
      </trkpt>
      <trkpt lat="43.69356" lon="7.28246">
        <ele>15.8</ele>
        <time>2022-09-28T11:43:30.866Z</time>
      </trkpt>
      <trkpt lat="43.69336" lon="7.28214">
        <ele>16.2</ele>
        <time>2022-09-28T11:44:42.958Z</time>
      </trkpt>
      <trkpt lat="43.69326" lon="7.28205">
        <ele>16.4</ele>
        <time>2022-09-28T11:45:12.203Z</time>
      </trkpt>
      <trkpt lat="43.69321" lon="7.2822">
        <ele>16.6</ele>
        <time>2022-09-28T11:45:41.472Z</time>
      </trkpt>
      <trkpt lat="43.69327" lon="7.28213">
        <ele>16.9</ele>
        <time>2022-09-28T11:46:06.531Z</time>
      </trkpt>
      <trkpt lat="43.69328" lon="7.28201">
        <ele>17.1</ele>
        <time>2022-09-28T11:46:29.462Z</time>
      </trkpt>
      <trkpt lat="43.69324" lon="7.28187">
        <ele>17.4</ele>
        <time>2022-09-28T11:46:59.672Z</time>
      </trkpt>
      <trkpt lat="43.69326" lon="7.28179">
        <ele>17.6</ele>
        <time>2022-09-28T11:47:17.796Z</time>
      </trkpt>
      <trkpt lat="43.69322" lon="7.28162">
        <ele>17.9</ele>
        <time>2022-09-28T11:47:51.857Z</time>
      </trkpt>
      <trkpt lat="43.69317" lon="7.28161">
        <ele>18</ele>
        <time>2022-09-28T11:48:04.660Z</time>
      </trkpt>
      <trkpt lat="43.69314" lon="7.28165">
        <ele>18.1</ele>
        <time>2022-09-28T11:48:15.742Z</time>
      </trkpt>
      <trkpt lat="43.69309" lon="7.28153">
        <ele>18.4</ele>
        <time>2022-09-28T11:48:44.377Z</time>
      </trkpt>
      <trkpt lat="43.69314" lon="7.28144">
        <ele>18.5</ele>
        <time>2022-09-28T11:49:03.544Z</time>
      </trkpt>
      <trkpt lat="43.69307" lon="7.28117">
        <ele>19</ele>
        <time>2022-09-28T11:49:58.770Z</time>
      </trkpt>
      <trkpt lat="43.69313" lon="7.28061">
        <ele>19.5</ele>
        <time>2022-09-28T11:51:34.398Z</time>
      </trkpt>
      <trkpt lat="43.69327" lon="7.2802">
        <ele>19.7</ele>
        <time>2022-09-28T11:52:46.447Z</time>
      </trkpt>
      <trkpt lat="43.69339" lon="7.27994">
        <ele>19.8</ele>
        <time>2022-09-28T11:53:34.703Z</time>
      </trkpt>
      <trkpt lat="43.69338" lon="7.27985">
        <ele>19.8</ele>
        <time>2022-09-28T11:53:48.363Z</time>
      </trkpt>
      <trkpt lat="43.69335" lon="7.27988">
        <ele>19.8</ele>
        <time>2022-09-28T11:53:56.044Z</time>
      </trkpt>
      <trkpt lat="43.69337" lon="7.27991">
        <ele>19.8</ele>
        <time>2022-09-28T11:54:02.166Z</time>
      </trkpt>
      <trkpt lat="43.69348" lon="7.27941">
        <ele>19.8</ele>
        <time>2022-09-28T11:55:20.571Z</time>
      </trkpt>
      <trkpt lat="43.69342" lon="7.27928">
        <ele>19.8</ele>
        <time>2022-09-28T11:55:43.708Z</time>
      </trkpt>
      <trkpt lat="43.69344" lon="7.2792">
        <ele>19.8</ele>
        <time>2022-09-28T11:55:56.407Z</time>
      </trkpt>
      <trkpt lat="43.69349" lon="7.27921">
        <ele>19.8</ele>
        <time>2022-09-28T11:56:06.889Z</time>
      </trkpt>
      <trkpt lat="43.69349" lon="7.2791">
        <ele>19.7</ele>
        <time>2022-09-28T11:56:10.901Z</time>
      </trkpt>
      <trkpt lat="43.69354" lon="7.27918">
        <ele>19.6</ele>
        <time>2022-09-28T11:56:14.732Z</time>
      </trkpt>
      <trkpt lat="43.69359" lon="7.27916">
        <ele>19.5</ele>
        <time>2022-09-28T11:56:17.151Z</time>
      </trkpt>
      <trkpt lat="43.69362" lon="7.2792">
        <ele>19.4</ele>
        <time>2022-09-28T11:56:18.984Z</time>
      </trkpt>
      <trkpt lat="43.694" lon="7.27897">
        <ele>18</ele>
        <time>2022-09-28T11:56:35.431Z</time>
      </trkpt>
      <trkpt lat="43.69408" lon="7.27896">
        <ele>17.7</ele>
        <time>2022-09-28T11:56:38.504Z</time>
      </trkpt>
      <trkpt lat="43.6942" lon="7.27883">
        <ele>17.1</ele>
        <time>2022-09-28T11:56:44.224Z</time>
      </trkpt>
      <trkpt lat="43.69425" lon="7.27882">
        <ele>16.9</ele>
        <time>2022-09-28T11:56:46.116Z</time>
      </trkpt>
      <trkpt lat="43.69439" lon="7.27863">
        <ele>16.3</ele>
        <time>2022-09-28T11:56:54.150Z</time>
      </trkpt>
      <trkpt lat="43.69439" lon="7.27855">
        <ele>16.1</ele>
        <time>2022-09-28T11:56:56.424Z</time>
      </trkpt>
      <trkpt lat="43.69449" lon="7.27842">
        <ele>15.8</ele>
        <time>2022-09-28T11:57:02.609Z</time>
      </trkpt>
      <trkpt lat="43.69467" lon="7.27797">
        <ele>14.9</ele>
        <time>2022-09-28T11:57:18.925Z</time>
      </trkpt>
      <trkpt lat="43.69481" lon="7.27733">
        <ele>13.9</ele>
        <time>2022-09-28T11:57:41.009Z</time>
      </trkpt>
      <trkpt lat="43.6948" lon="7.27721">
        <ele>13.7</ele>
        <time>2022-09-28T11:57:44.898Z</time>
      </trkpt>
      <trkpt lat="43.69475" lon="7.27715">
        <ele>13.6</ele>
        <time>2022-09-28T11:57:48.132Z</time>
      </trkpt>
      <trkpt lat="43.69481" lon="7.27702">
        <ele>13.4</ele>
        <time>2022-09-28T11:57:53.394Z</time>
      </trkpt>
      <trkpt lat="43.69481" lon="7.27693">
        <ele>13.3</ele>
        <time>2022-09-28T11:57:56.562Z</time>
      </trkpt>
      <trkpt lat="43.69479" lon="7.27701">
        <ele>13.2</ele>
        <time>2022-09-28T11:57:59.507Z</time>
      </trkpt>
      <trkpt lat="43.69492" lon="7.27683">
        <ele>12.2</ele>
        <time>2022-09-28T11:58:05.544Z</time>
      </trkpt>
      <trkpt lat="43.69506" lon="7.27698">
        <ele>13</ele>
        <time>2022-09-28T11:59:07.823Z</time>
      </trkpt>
      <trkpt lat="43.69519" lon="7.27703">
        <ele>13.4</ele>
        <time>2022-09-28T11:59:46.255Z</time>
      </trkpt>
      <trkpt lat="43.69526" lon="7.27702">
        <ele>13.5</ele>
        <time>2022-09-28T12:00:03.041Z</time>
      </trkpt>
      <trkpt lat="43.69536" lon="7.27712">
        <ele>13.5</ele>
        <time>2022-09-28T12:00:28.645Z</time>
      </trkpt>
      <trkpt lat="43.6954" lon="7.27697">
        <ele>13.4</ele>
        <time>2022-09-28T12:00:34.784Z</time>
      </trkpt>
      <trkpt lat="43.69538" lon="7.27693">
        <ele>13.4</ele>
        <time>2022-09-28T12:00:42.080Z</time>
      </trkpt>
      <trkpt lat="43.69539" lon="7.27697">
        <ele>13.4</ele>
        <time>2022-09-28T12:00:48.429Z</time>
      </trkpt>
      <trkpt lat="43.69547" lon="7.2768">
        <ele>13.3</ele>
        <time>2022-09-28T12:01:15.979Z</time>
      </trkpt>
      <trkpt lat="43.69555" lon="7.27652">
        <ele>13.5</ele>
        <time>2022-09-28T12:02:05.294Z</time>
      </trkpt>
      <trkpt lat="43.69561" lon="7.2765">
        <ele>13.5</ele>
        <time>2022-09-28T12:02:18.100Z</time>
      </trkpt>
      <trkpt lat="43.69572" lon="7.27656">
        <ele>13.7</ele>
        <time>2022-09-28T12:02:47.131Z</time>
      </trkpt>
      <trkpt lat="43.69594" lon="7.2766">
        <ele>14</ele>
        <time>2022-09-28T12:03:39.678Z</time>
      </trkpt>
      <trkpt lat="43.69598" lon="7.27658">
        <ele>14.1</ele>
        <time>2022-09-28T12:03:50.925Z</time>
      </trkpt>
      <trkpt lat="43.69599" lon="7.27663">
        <ele>14.1</ele>
        <time>2022-09-28T12:03:58.707Z</time>
      </trkpt>
      <trkpt lat="43.69587" lon="7.2765">
        <ele>14.3</ele>
        <time>2022-09-28T12:04:34.654Z</time>
      </trkpt>
      <trkpt lat="43.69588" lon="7.27659">
        <ele>14.4</ele>
        <time>2022-09-28T12:04:50.521Z</time>
      </trkpt>
      <trkpt lat="43.69601" lon="7.27667">
        <ele>14.6</ele>
        <time>2022-09-28T12:05:24.406Z</time>
      </trkpt>
      <trkpt lat="43.69615" lon="7.27666">
        <ele>14.8</ele>
        <time>2022-09-28T12:05:57.865Z</time>
      </trkpt>
      <trkpt lat="43.69633" lon="7.2767">
        <ele>15.1</ele>
        <time>2022-09-28T12:06:42.404Z</time>
      </trkpt>
      <trkpt lat="43.69636" lon="7.27652">
        <ele>15.3</ele>
        <time>2022-09-28T12:07:14.520Z</time>
      </trkpt>
      <trkpt lat="43.69637" lon="7.27657">
        <ele>15.3</ele>
        <time>2022-09-28T12:07:22.302Z</time>
      </trkpt>
      <trkpt lat="43.69644" lon="7.27661">
        <ele>15.4</ele>
        <time>2022-09-28T12:07:40.178Z</time>
      </trkpt>
      <trkpt lat="43.69636" lon="7.27665">
        <ele>15.6</ele>
        <time>2022-09-28T12:08:02.672Z</time>
      </trkpt>
      <trkpt lat="43.69628" lon="7.27643">
        <ele>15.4</ele>
        <time>2022-09-28T12:08:11.810Z</time>
      </trkpt>
      <trkpt lat="43.69636" lon="7.27593">
        <ele>14.8</ele>
        <time>2022-09-28T12:08:29.653Z</time>
      </trkpt>
      <trkpt lat="43.69652" lon="7.27556">
        <ele>14.8</ele>
        <time>2022-09-28T12:09:34.327Z</time>
      </trkpt>
      <trkpt lat="43.69656" lon="7.27497">
        <ele>14.8</ele>
        <time>2022-09-28T12:11:03.223Z</time>
      </trkpt>
      <trkpt lat="43.69663" lon="7.27475">
        <ele>14.6</ele>
        <time>2022-09-28T12:11:12.110Z</time>
      </trkpt>
      <trkpt lat="43.69681" lon="7.27444">
        <ele>14.4</ele>
        <time>2022-09-28T12:12:06.008Z</time>
      </trkpt>
      <trkpt lat="43.69682" lon="7.27421">
        <ele>14.2</ele>
        <time>2022-09-28T12:12:14.472Z</time>
      </trkpt>
      <trkpt lat="43.69679" lon="7.27418">
        <ele>14.2</ele>
        <time>2022-09-28T12:12:22.153Z</time>
      </trkpt>
      <trkpt lat="43.69679" lon="7.27398">
        <ele>14.2</ele>
        <time>2022-09-28T12:12:52.155Z</time>
      </trkpt>
      <trkpt lat="43.69684" lon="7.27389">
        <ele>14.2</ele>
        <time>2022-09-28T12:13:09.182Z</time>
      </trkpt>
      <trkpt lat="43.69679" lon="7.27389">
        <ele>14.2</ele>
        <time>2022-09-28T12:13:19.556Z</time>
      </trkpt>
      <trkpt lat="43.69674" lon="7.27408">
        <ele>14.2</ele>
        <time>2022-09-28T12:13:49.887Z</time>
      </trkpt>
      <trkpt lat="43.69682" lon="7.27408">
        <ele>14.2</ele>
        <time>2022-09-28T12:14:06.486Z</time>
      </trkpt>
      <trkpt lat="43.69676" lon="7.27408">
        <ele>14.2</ele>
        <time>2022-09-28T12:14:18.935Z</time>
      </trkpt>
      <trkpt lat="43.69679" lon="7.2741">
        <ele>14.2</ele>
        <time>2022-09-28T12:14:25.845Z</time>
      </trkpt>
      <trkpt lat="43.69677" lon="7.27419">
        <ele>14.3</ele>
        <time>2022-09-28T12:14:42.165Z</time>
      </trkpt>
      <trkpt lat="43.69675" lon="7.27416">
        <ele>14.3</ele>
        <time>2022-09-28T12:14:48.287Z</time>
      </trkpt>
      <trkpt lat="43.69685" lon="7.27414">
        <ele>14.3</ele>
        <time>2022-09-28T12:15:09.251Z</time>
      </trkpt>
      <trkpt lat="43.69678" lon="7.2742">
        <ele>14.3</ele>
        <time>2022-09-28T12:15:26.337Z</time>
      </trkpt>
      <trkpt lat="43.6968" lon="7.27429">
        <ele>14.3</ele>
        <time>2022-09-28T12:15:40.462Z</time>
      </trkpt>
      <trkpt lat="43.6969" lon="7.2743">
        <ele>14.4</ele>
        <time>2022-09-28T12:16:03.356Z</time>
      </trkpt>
      <trkpt lat="43.69723" lon="7.27454">
        <ele>14.8</ele>
        <time>2022-09-28T12:17:29.144Z</time>
      </trkpt>
      <trkpt lat="43.69727" lon="7.27463">
        <ele>14.9</ele>
        <time>2022-09-28T12:17:47.151Z</time>
      </trkpt>
      <trkpt lat="43.69744" lon="7.27476">
        <ele>15.1</ele>
        <time>2022-09-28T12:18:31.652Z</time>
      </trkpt>
      <trkpt lat="43.69747" lon="7.27489">
        <ele>15.3</ele>
        <time>2022-09-28T12:18:56.790Z</time>
      </trkpt>
      <trkpt lat="43.69777" lon="7.2753">
        <ele>15.6</ele>
        <time>2022-09-28T12:20:30.394Z</time>
      </trkpt>
      <trkpt lat="43.69773" lon="7.27527">
        <ele>15.6</ele>
        <time>2022-09-28T12:20:39.835Z</time>
      </trkpt>
      <trkpt lat="43.69775" lon="7.2753">
        <ele>15.5</ele>
        <time>2022-09-28T12:20:41.003Z</time>
      </trkpt>
      <trkpt lat="43.69775" lon="7.27529">
        <ele>15.5</ele>
        <time>2022-09-28T12:20:42.503Z</time>
      </trkpt>
      <trkpt lat="43.69775" lon="7.27531">
        <ele>15.5</ele>
        <time>2022-09-28T12:20:45.504Z</time>
      </trkpt>
      <trkpt lat="43.69776" lon="7.27528">
        <ele>15.5</ele>
        <time>2022-09-28T12:20:50.459Z</time>
      </trkpt>
      <trkpt lat="43.69777" lon="7.2753">
        <ele>15.5</ele>
        <time>2022-09-28T12:20:54.107Z</time>
      </trkpt>
      <trkpt lat="43.69774" lon="7.27522">
        <ele>15.5</ele>
        <time>2022-09-28T12:21:07.626Z</time>
      </trkpt>
      <trkpt lat="43.69776" lon="7.27522">
        <ele>15.5</ele>
        <time>2022-09-28T12:21:11.775Z</time>
      </trkpt>
      <trkpt lat="43.69772" lon="7.27522">
        <ele>15.5</ele>
        <time>2022-09-28T12:21:20.075Z</time>
      </trkpt>
      <trkpt lat="43.69771" lon="7.27533">
        <ele>15.5</ele>
        <time>2022-09-28T12:21:36.706Z</time>
      </trkpt>
      <trkpt lat="43.69772" lon="7.27526">
        <ele>15.4</ele>
        <time>2022-09-28T12:21:39.098Z</time>
      </trkpt>
      <trkpt lat="43.69776" lon="7.27539">
        <ele>15.4</ele>
        <time>2022-09-28T12:22:00.292Z</time>
      </trkpt>
      <trkpt lat="43.6979" lon="7.27558">
        <ele>15.4</ele>
        <time>2022-09-28T12:22:40.987Z</time>
      </trkpt>
      <trkpt lat="43.69791" lon="7.27568">
        <ele>15.5</ele>
        <time>2022-09-28T12:22:58.304Z</time>
      </trkpt>
      <trkpt lat="43.698" lon="7.27575">
        <ele>15.7</ele>
        <time>2022-09-28T12:23:24.348Z</time>
      </trkpt>
      <trkpt lat="43.69814" lon="7.27615">
        <ele>16.3</ele>
        <time>2022-09-28T12:24:44.769Z</time>
      </trkpt>
      <trkpt lat="43.69822" lon="7.27627">
        <ele>16.5</ele>
        <time>2022-09-28T12:25:13.754Z</time>
      </trkpt>
      <trkpt lat="43.69811" lon="7.27668">
        <ele>16.9</ele>
        <time>2022-09-28T12:26:27.954Z</time>
      </trkpt>
      <trkpt lat="43.69812" lon="7.27685">
        <ele>17.1</ele>
        <time>2022-09-28T12:26:58.004Z</time>
      </trkpt>
      <trkpt lat="43.69816" lon="7.27684">
        <ele>17.1</ele>
        <time>2022-09-28T12:27:06.437Z</time>
      </trkpt>
      <trkpt lat="43.69811" lon="7.27689">
        <ele>17.3</ele>
        <time>2022-09-28T12:27:24.645Z</time>
      </trkpt>
      <trkpt lat="43.69816" lon="7.27692">
        <ele>17.3</ele>
        <time>2022-09-28T12:27:35.953Z</time>
      </trkpt>
      <trkpt lat="43.69817" lon="7.27711">
        <ele>17.5</ele>
        <time>2022-09-28T12:28:08.914Z</time>
      </trkpt>
      <trkpt lat="43.69837" lon="7.2774">
        <ele>18.3</ele>
        <time>2022-09-28T12:29:29.385Z</time>
      </trkpt>
      <trkpt lat="43.69841" lon="7.27757">
        <ele>18.6</ele>
        <time>2022-09-28T12:30:03.443Z</time>
      </trkpt>
      <trkpt lat="43.69835" lon="7.2777">
        <ele>18.9</ele>
        <time>2022-09-28T12:30:34.145Z</time>
      </trkpt>
      <trkpt lat="43.69849" lon="7.278">
        <ele>18.6</ele>
        <time>2022-09-28T12:30:47.327Z</time>
      </trkpt>
      <trkpt lat="43.69872" lon="7.27823">
        <ele>18.5</ele>
        <time>2022-09-28T12:31:43.198Z</time>
      </trkpt>
      <trkpt lat="43.69878" lon="7.27823">
        <ele>18.5</ele>
        <time>2022-09-28T12:31:55.647Z</time>
      </trkpt>
      <trkpt lat="43.69891" lon="7.27814">
        <ele>18.6</ele>
        <time>2022-09-28T12:32:27.838Z</time>
      </trkpt>
      <trkpt lat="43.6989" lon="7.27811">
        <ele>18.6</ele>
        <time>2022-09-28T12:32:32.793Z</time>
      </trkpt>
      <trkpt lat="43.69883" lon="7.27818">
        <ele>18.6</ele>
        <time>2022-09-28T12:32:50.715Z</time>
      </trkpt>
      <trkpt lat="43.69884" lon="7.27825">
        <ele>18.6</ele>
        <time>2022-09-28T12:33:01.419Z</time>
      </trkpt>
      <trkpt lat="43.69887" lon="7.27822">
        <ele>18.6</ele>
        <time>2022-09-28T12:33:09.100Z</time>
      </trkpt>
      <trkpt lat="43.69882" lon="7.27823">
        <ele>18.6</ele>
        <time>2022-09-28T12:33:19.582Z</time>
      </trkpt>
      <trkpt lat="43.69885" lon="7.27817">
        <ele>18.7</ele>
        <time>2022-09-28T12:33:32.825Z</time>
      </trkpt>
      <trkpt lat="43.69887" lon="7.27817">
        <ele>18.7</ele>
        <time>2022-09-28T12:33:36.975Z</time>
      </trkpt>
      <trkpt lat="43.69883" lon="7.27834">
        <ele>18.7</ele>
        <time>2022-09-28T12:34:03.792Z</time>
      </trkpt>
      <trkpt lat="43.69884" lon="7.27839">
        <ele>18.7</ele>
        <time>2022-09-28T12:34:11.574Z</time>
      </trkpt>
      <trkpt lat="43.69891" lon="7.27844">
        <ele>18.9</ele>
        <time>2022-09-28T12:34:32.873Z</time>
      </trkpt>
      <trkpt lat="43.69899" lon="7.27861">
        <ele>19.4</ele>
        <time>2022-09-28T12:35:17.118Z</time>
      </trkpt>
      <trkpt lat="43.69927" lon="7.27877">
        <ele>20.1</ele>
        <time>2022-09-28T12:36:36.850Z</time>
      </trkpt>
      <trkpt lat="43.69928" lon="7.27881">
        <ele>20</ele>
        <time>2022-09-28T12:36:38.077Z</time>
      </trkpt>
      <trkpt lat="43.6995" lon="7.27884">
        <ele>19.9</ele>
        <time>2022-09-28T12:37:20.972Z</time>
      </trkpt>
      <trkpt lat="43.70033" lon="7.27908">
        <ele>20</ele>
        <time>2022-09-28T12:40:18.826Z</time>
      </trkpt>
      <trkpt lat="43.70039" lon="7.27904">
        <ele>20.1</ele>
        <time>2022-09-28T12:40:34.849Z</time>
      </trkpt>
      <trkpt lat="43.70067" lon="7.27959">
        <ele>20.5</ele>
        <time>2022-09-28T12:42:23.974Z</time>
      </trkpt>
      <trkpt lat="43.70066" lon="7.27969">
        <ele>20.5</ele>
        <time>2022-09-28T12:42:39.117Z</time>
      </trkpt>
      <trkpt lat="43.70074" lon="7.27986">
        <ele>20.5</ele>
        <time>2022-09-28T12:43:09.544Z</time>
      </trkpt>
      <trkpt lat="43.70072" lon="7.27985">
        <ele>20.5</ele>
        <time>2022-09-28T12:43:13.956Z</time>
      </trkpt>
      <trkpt lat="43.70075" lon="7.27985">
        <ele>20.5</ele>
        <time>2022-09-28T12:43:20.181Z</time>
      </trkpt>
      <trkpt lat="43.70075" lon="7.27994">
        <ele>20.5</ele>
        <time>2022-09-28T12:43:33.681Z</time>
      </trkpt>
      <trkpt lat="43.70078" lon="7.27995">
        <ele>20.6</ele>
        <time>2022-09-28T12:43:42.786Z</time>
      </trkpt>
      <trkpt lat="43.70077" lon="7.27993">
        <ele>20.6</ele>
        <time>2022-09-28T12:43:46.434Z</time>
      </trkpt>
      <trkpt lat="43.70068" lon="7.28011">
        <ele>20.6</ele>
        <time>2022-09-28T12:44:19.262Z</time>
      </trkpt>
      <trkpt lat="43.70065" lon="7.28012">
        <ele>20.6</ele>
        <time>2022-09-28T12:44:25.665Z</time>
      </trkpt>
      <trkpt lat="43.70059" lon="7.2803">
        <ele>20.4</ele>
        <time>2022-09-28T12:44:32.766Z</time>
      </trkpt>
      <trkpt lat="43.70062" lon="7.28033">
        <ele>20</ele>
        <time>2022-09-28T12:44:33.969Z</time>
      </trkpt>
      <trkpt lat="43.70135" lon="7.27969">
        <ele>20.1</ele>
        <time>2022-09-28T12:47:35.214Z</time>
      </trkpt>
      <trkpt lat="43.70064" lon="7.28023">
        <ele>19.8</ele>
        <time>2022-09-28T12:50:14.302Z</time>
      </trkpt>
      <trkpt lat="43.70062" lon="7.28029">
        <ele>19.6</ele>
        <time>2022-09-28T12:50:16.052Z</time>
      </trkpt>
      <trkpt lat="43.70067" lon="7.28037">
        <ele>19.5</ele>
        <time>2022-09-28T12:50:19.884Z</time>
      </trkpt>
      <trkpt lat="43.70061" lon="7.28056">
        <ele>19.4</ele>
        <time>2022-09-28T12:50:48.100Z</time>
      </trkpt>
      <trkpt lat="43.70062" lon="7.28064">
        <ele>19.4</ele>
        <time>2022-09-28T12:51:00.278Z</time>
      </trkpt>
      <trkpt lat="43.70063" lon="7.28063">
        <ele>19.4</ele>
        <time>2022-09-28T12:51:02.838Z</time>
      </trkpt>
      <trkpt lat="43.7006" lon="7.28061">
        <ele>19.3</ele>
        <time>2022-09-28T12:51:04.211Z</time>
      </trkpt>
      <trkpt lat="43.70058" lon="7.28069">
        <ele>19.3</ele>
        <time>2022-09-28T12:51:16.908Z</time>
      </trkpt>
      <trkpt lat="43.70061" lon="7.28072">
        <ele>19.2</ele>
        <time>2022-09-28T12:51:18.483Z</time>
      </trkpt>
      <trkpt lat="43.70068" lon="7.28068">
        <ele>19.2</ele>
        <time>2022-09-28T12:51:34.197Z</time>
      </trkpt>
      <trkpt lat="43.70062" lon="7.28068">
        <ele>19.1</ele>
        <time>2022-09-28T12:51:37.072Z</time>
      </trkpt>
      <trkpt lat="43.70058" lon="7.28073">
        <ele>19</ele>
        <time>2022-09-28T12:51:39.598Z</time>
      </trkpt>
      <trkpt lat="43.70065" lon="7.28081">
        <ele>18.9</ele>
        <time>2022-09-28T12:51:44.272Z</time>
      </trkpt>
      <trkpt lat="43.70055" lon="7.28107">
        <ele>18.5</ele>
        <time>2022-09-28T12:51:54.217Z</time>
      </trkpt>
      <trkpt lat="43.70048" lon="7.28114">
        <ele>18.3</ele>
        <time>2022-09-28T12:51:58.052Z</time>
      </trkpt>
      <trkpt lat="43.7005" lon="7.28123">
        <ele>18.1</ele>
        <time>2022-09-28T12:52:00.876Z</time>
      </trkpt>
      <trkpt lat="43.70041" lon="7.28147">
        <ele>17.8</ele>
        <time>2022-09-28T12:52:10.395Z</time>
      </trkpt>
      <trkpt lat="43.70034" lon="7.28153">
        <ele>17.7</ele>
        <time>2022-09-28T12:52:14.572Z</time>
      </trkpt>
      <trkpt lat="43.7003" lon="7.28164">
        <ele>17.6</ele>
        <time>2022-09-28T12:52:19.141Z</time>
      </trkpt>
      <trkpt lat="43.70014" lon="7.2817">
        <ele>17.4</ele>
        <time>2022-09-28T12:52:27.557Z</time>
      </trkpt>
      <trkpt lat="43.69998" lon="7.28193">
        <ele>17.1</ele>
        <time>2022-09-28T12:52:39.133Z</time>
      </trkpt>
      <trkpt lat="43.69996" lon="7.28203">
        <ele>17.1</ele>
        <time>2022-09-28T12:52:54.697Z</time>
      </trkpt>
      <trkpt lat="43.69983" lon="7.2822">
        <ele>16.9</ele>
        <time>2022-09-28T12:53:03.885Z</time>
      </trkpt>
      <trkpt lat="43.69974" lon="7.28242">
        <ele>16.8</ele>
        <time>2022-09-28T12:53:38.869Z</time>
      </trkpt>
      <trkpt lat="43.69977" lon="7.28247">
        <ele>16.8</ele>
        <time>2022-09-28T12:53:48.616Z</time>
      </trkpt>
      <trkpt lat="43.6996" lon="7.28271">
        <ele>16.5</ele>
        <time>2022-09-28T12:54:00.903Z</time>
      </trkpt>
      <trkpt lat="43.69956" lon="7.2827">
        <ele>16.5</ele>
        <time>2022-09-28T12:54:09.337Z</time>
      </trkpt>
      <trkpt lat="43.69959" lon="7.28277">
        <ele>16.4</ele>
        <time>2022-09-28T12:54:12.145Z</time>
      </trkpt>
      <trkpt lat="43.69949" lon="7.28274">
        <ele>16.3</ele>
        <time>2022-09-28T12:54:17.499Z</time>
      </trkpt>
      <trkpt lat="43.69958" lon="7.2828">
        <ele>16.2</ele>
        <time>2022-09-28T12:54:22.709Z</time>
      </trkpt>
      <trkpt lat="43.6995" lon="7.28275">
        <ele>16.1</ele>
        <time>2022-09-28T12:54:27.206Z</time>
      </trkpt>
      <trkpt lat="43.69938" lon="7.28279">
        <ele>16</ele>
        <time>2022-09-28T12:54:33.811Z</time>
      </trkpt>
      <trkpt lat="43.69894" lon="7.28361">
        <ele>14.3</ele>
        <time>2022-09-28T12:55:06.640Z</time>
      </trkpt>
      <trkpt lat="43.69894" lon="7.28373">
        <ele>14.1</ele>
        <time>2022-09-28T12:55:10.497Z</time>
      </trkpt>
      <trkpt lat="43.69905" lon="7.28381">
        <ele>13.9</ele>
        <time>2022-09-28T12:55:16.494Z</time>
      </trkpt>
      <trkpt lat="43.69906" lon="7.28387">
        <ele>13.9</ele>
        <time>2022-09-28T12:55:25.731Z</time>
      </trkpt>
      <trkpt lat="43.69895" lon="7.28397">
        <ele>13.7</ele>
        <time>2022-09-28T12:55:32.154Z</time>
      </trkpt>
      <trkpt lat="43.6989" lon="7.28407">
        <ele>13.7</ele>
        <time>2022-09-28T12:55:50.392Z</time>
      </trkpt>
      <trkpt lat="43.69872" lon="7.28415">
        <ele>13.5</ele>
        <time>2022-09-28T12:56:00.179Z</time>
      </trkpt>
      <trkpt lat="43.69869" lon="7.28419">
        <ele>13.5</ele>
        <time>2022-09-28T12:56:08.825Z</time>
      </trkpt>
      <trkpt lat="43.69869" lon="7.28417">
        <ele>13.5</ele>
        <time>2022-09-28T12:56:11.825Z</time>
      </trkpt>
      <trkpt lat="43.69871" lon="7.28418">
        <ele>13.5</ele>
        <time>2022-09-28T12:56:16.237Z</time>
      </trkpt>
      <trkpt lat="43.6987" lon="7.28437">
        <ele>13.5</ele>
        <time>2022-09-28T12:56:44.814Z</time>
      </trkpt>
      <trkpt lat="43.69873" lon="7.28459">
        <ele>13.5</ele>
        <time>2022-09-28T12:57:18.397Z</time>
      </trkpt>
      <trkpt lat="43.69865" lon="7.2851">
        <ele>13.5</ele>
        <time>2022-09-28T12:58:36.681Z</time>
      </trkpt>
      <trkpt lat="43.69861" lon="7.28512">
        <ele>13.5</ele>
        <time>2022-09-28T12:58:45.506Z</time>
      </trkpt>
      <trkpt lat="43.6984" lon="7.28514">
        <ele>13.3</ele>
        <time>2022-09-28T12:58:56.559Z</time>
      </trkpt>
      <trkpt lat="43.69827" lon="7.28631">
        <ele>13.8</ele>
        <time>2022-09-28T13:02:04.168Z</time>
      </trkpt>
      <trkpt lat="43.69828" lon="7.28641">
        <ele>6.7</ele>
        <time>2022-09-28T13:02:06.539Z</time>
      </trkpt>
      <trkpt lat="43.69826" lon="7.28675">
        <ele>7.7</ele>
        <time>2022-09-28T13:03:27.944Z</time>
      </trkpt>
      <trkpt lat="43.69822" lon="7.28707">
        <ele>8.6</ele>
        <time>2022-09-28T13:04:43.018Z</time>
      </trkpt>
      <trkpt lat="43.69821" lon="7.28723">
        <ele>9</ele>
        <time>2022-09-28T13:05:18.216Z</time>
      </trkpt>
      <trkpt lat="43.69818" lon="7.28749">
        <ele>8.5</ele>
        <time>2022-09-28T13:05:26.381Z</time>
      </trkpt>
      <trkpt lat="43.69816" lon="7.28771">
        <ele>8.1</ele>
        <time>2022-09-28T13:05:33.357Z</time>
      </trkpt>
      <trkpt lat="43.69811" lon="7.28808">
        <ele>10</ele>
        <time>2022-09-28T13:07:26.820Z</time>
      </trkpt>
      <trkpt lat="43.69807" lon="7.28835">
        <ele>13</ele>
        <time>2022-09-28T13:10:06.289Z</time>
      </trkpt>
      <trkpt lat="43.69803" lon="7.28849">
        <ele>13.8</ele>
        <time>2022-09-28T13:10:52.962Z</time>
      </trkpt>
      <trkpt lat="43.69801" lon="7.28855">
        <ele>13.8</ele>
        <time>2022-09-28T13:11:02.873Z</time>
      </trkpt>
      <trkpt lat="43.69793" lon="7.2887">
        <ele>21</ele>
        <time>2022-09-28T13:12:50.723Z</time>
      </trkpt>
      <trkpt lat="43.69792" lon="7.28869">
        <ele>14</ele>
        <time>2022-09-28T13:12:51.124Z</time>
      </trkpt>
      <trkpt lat="43.69779" lon="7.28877">
        <ele>14.6</ele>
        <time>2022-09-28T13:13:39.225Z</time>
      </trkpt>
      <trkpt lat="43.69764" lon="7.28881">
        <ele>15.6</ele>
        <time>2022-09-28T13:14:40.894Z</time>
      </trkpt>
      <trkpt lat="43.69761" lon="7.28881">
        <ele>15.8</ele>
        <time>2022-09-28T13:14:53.112Z</time>
      </trkpt>
      <trkpt lat="43.69715" lon="7.28884">
        <ele>26.1</ele>
        <time>2022-09-28T13:21:01.655Z</time>
      </trkpt>
      <trkpt lat="43.69693" lon="7.28893">
        <ele>22.5</ele>
        <time>2022-09-28T13:21:09.107Z</time>
      </trkpt>
      <trkpt lat="43.6969" lon="7.28896">
        <ele>22.9</ele>
        <time>2022-09-28T13:21:30.782Z</time>
      </trkpt>
      <trkpt lat="43.69686" lon="7.28902">
        <ele>23.4</ele>
        <time>2022-09-28T13:21:58.497Z</time>
      </trkpt>
      <trkpt lat="43.69679" lon="7.28911">
        <ele>28.9</ele>
        <time>2022-09-28T13:23:14.983Z</time>
      </trkpt>
      <trkpt lat="43.69671" lon="7.28932">
        <ele>29.4</ele>
        <time>2022-09-28T13:24:03.553Z</time>
      </trkpt>
      <trkpt lat="43.69666" lon="7.28958">
        <ele>25.1</ele>
        <time>2022-09-28T13:24:09.871Z</time>
      </trkpt>
      <trkpt lat="43.69663" lon="7.29022">
        <ele>26.8</ele>
        <time>2022-09-28T13:26:34.724Z</time>
      </trkpt>
      <trkpt lat="43.69663" lon="7.29079">
        <ele>29.8</ele>
        <time>2022-09-28T13:29:30.489Z</time>
      </trkpt>
      <trkpt lat="43.69663" lon="7.29097">
        <ele>30</ele>
        <time>2022-09-28T13:30:01.915Z</time>
      </trkpt>
      <trkpt lat="43.69662" lon="7.29135">
        <ele>31.5</ele>
        <time>2022-09-28T13:31:44.728Z</time>
      </trkpt>
      <trkpt lat="43.69659" lon="7.29152">
        <ele>33.5</ele>
        <time>2022-09-28T13:33:25.981Z</time>
      </trkpt>
      <trkpt lat="43.69653" lon="7.2917">
        <ele>35.3</ele>
        <time>2022-09-28T13:35:09.010Z</time>
      </trkpt>
      <trkpt lat="43.69648" lon="7.29182">
        <ele>35.4</ele>
        <time>2022-09-28T13:35:31.878Z</time>
      </trkpt>
      <trkpt lat="43.69642" lon="7.29192">
        <ele>34.7</ele>
        <time>2022-09-28T13:35:34.930Z</time>
      </trkpt>
      <trkpt lat="43.69634" lon="7.29206">
        <ele>34.2</ele>
        <time>2022-09-28T13:35:39.800Z</time>
      </trkpt>
      <trkpt lat="43.69623" lon="7.29219">
        <ele>34.3</ele>
        <time>2022-09-28T13:36:11.849Z</time>
      </trkpt>
      <trkpt lat="43.69606" lon="7.29235">
        <ele>42.3</ele>
        <time>2022-09-28T13:38:56.410Z</time>
      </trkpt>
      <trkpt lat="43.69564" lon="7.29292">
        <ele>45.1</ele>
        <time>2022-09-28T13:42:26.562Z</time>
      </trkpt>
      <trkpt lat="43.69546" lon="7.29305">
        <ele>45.7</ele>
        <time>2022-09-28T13:43:24.328Z</time>
      </trkpt>
      <trkpt lat="43.69533" lon="7.2931">
        <ele>46.1</ele>
        <time>2022-09-28T13:44:02.760Z</time>
      </trkpt>
      <trkpt lat="43.69525" lon="7.29322">
        <ele>46.5</ele>
        <time>2022-09-28T13:44:38.271Z</time>
      </trkpt>
      <trkpt lat="43.69507" lon="7.29333">
        <ele>47</ele>
        <time>2022-09-28T13:45:31.486Z</time>
      </trkpt>
      <trkpt lat="43.69479" lon="7.29343">
        <ele>40.5</ele>
        <time>2022-09-28T13:45:40.880Z</time>
      </trkpt>
      <trkpt lat="43.69475" lon="7.29345">
        <ele>40.5</ele>
        <time>2022-09-28T13:45:49.705Z</time>
      </trkpt>
      <trkpt lat="43.69471" lon="7.29345">
        <ele>40.1</ele>
        <time>2022-09-28T13:45:51.004Z</time>
      </trkpt>
      <trkpt lat="43.69466" lon="7.29344">
        <ele>39.7</ele>
        <time>2022-09-28T13:45:52.645Z</time>
      </trkpt>
      <trkpt lat="43.69445" lon="7.29351">
        <ele>40.2</ele>
        <time>2022-09-28T13:46:49.524Z</time>
      </trkpt>
      <trkpt lat="43.69422" lon="7.29351">
        <ele>48.5</ele>
        <time>2022-09-28T13:49:53.591Z</time>
      </trkpt>
      <trkpt lat="43.69356" lon="7.29316">
        <ele>40</ele>
        <time>2022-09-28T13:50:16.552Z</time>
      </trkpt>
      <trkpt lat="43.6933" lon="7.29306">
        <ele>42.8</ele>
        <time>2022-09-28T13:52:47.691Z</time>
      </trkpt>
      <trkpt lat="43.69308" lon="7.29305">
        <ele>45.3</ele>
        <time>2022-09-28T13:55:04.564Z</time>
      </trkpt>
      <trkpt lat="43.69234" lon="7.29325">
        <ele>47.7</ele>
        <time>2022-09-28T13:58:45.389Z</time>
      </trkpt>
      <trkpt lat="43.69222" lon="7.29335">
        <ele>49</ele>
        <time>2022-09-28T13:59:56.019Z</time>
      </trkpt>
      <trkpt lat="43.69206" lon="7.29365">
        <ele>48.2</ele>
        <time>2022-09-28T14:00:07.165Z</time>
      </trkpt>
      <trkpt lat="43.69182" lon="7.29442">
        <ele>50.7</ele>
        <time>2022-09-28T14:03:29.308Z</time>
      </trkpt>
      <trkpt lat="43.69169" lon="7.29466">
        <ele>52.5</ele>
        <time>2022-09-28T14:05:09.686Z</time>
      </trkpt>
      <trkpt lat="43.69157" lon="7.29482">
        <ele>59.3</ele>
        <time>2022-09-28T14:07:23.084Z</time>
      </trkpt>
      <trkpt lat="43.69126" lon="7.29506">
        <ele>55.4</ele>
        <time>2022-09-28T14:07:34.624Z</time>
      </trkpt>
      <trkpt lat="43.69108" lon="7.29514">
        <ele>56.8</ele>
        <time>2022-09-28T14:08:56.046Z</time>
      </trkpt>
      <trkpt lat="43.69073" lon="7.29522">
        <ele>55</ele>
        <time>2022-09-28T14:09:08.052Z</time>
      </trkpt>
    </trkseg>
  </trk>
</gpx>